createdAt,value
2018-11-27T00:08:07.250Z,1.68
2018-11-27T00:28:31.698Z,1.19
2018-11-27T00:57:41.817Z,0.50
2018-11-27T01:18:11.764Z,1.01
2018-11-27T01:20:43.821Z,1.02
2018-11-27T01:23:15.797Z,1.06
2018-11-27T01:25:47.865Z,1.09
2018-11-27T01:28:19.857Z,1.05
2018-11-27T01:30:51.977Z,1.07
2018-11-27T01:33:23.984Z,1.13
2018-11-27T01:35:56.001Z,1.11
2018-11-27T01:38:28.001Z,1.16
2018-11-27T01:41:00.310Z,1.16
2018-11-27T01:43:32.357Z,1.18
2018-11-27T01:46:04.736Z,1.25
2018-11-27T02:06:21.725Z,1.48
2018-11-27T02:08:53.753Z,1.51
2018-11-27T02:11:25.756Z,1.51
2018-11-27T02:13:57.828Z,1.58
2018-11-27T02:16:29.832Z,1.53
2018-11-27T02:19:01.795Z,1.61
2018-11-27T02:39:19.325Z,1.83
2018-11-27T02:41:51.305Z,1.78
2018-11-27T02:44:23.290Z,1.79
2018-11-27T02:46:55.314Z,1.83
2018-11-27T02:49:27.268Z,1.86
2018-11-27T03:09:45.236Z,1.94
2018-11-27T03:12:17.210Z,2.05
2018-11-27T03:14:49.173Z,1.98
2018-11-27T03:17:21.208Z,2.02
2018-11-27T03:19:53.301Z,2.04
2018-11-27T03:22:25.805Z,2.01
2018-11-27T03:42:43.033Z,2.16
2018-11-27T03:45:15.531Z,2.13
2018-11-27T03:47:47.594Z,2.17
2018-11-27T03:50:28.274Z,2.15
2018-11-27T03:53:00.328Z,2.16
2018-11-27T03:55:32.333Z,2.18
2018-11-27T03:58:04.396Z,2.16
2018-11-27T04:00:36.494Z,2.20
2018-11-27T04:03:10.757Z,2.20
2018-11-27T04:05:42.849Z,2.16
2018-11-27T04:08:14.805Z,2.25
2018-11-27T04:10:46.792Z,2.20
2018-11-27T04:13:18.770Z,2.22
2018-11-27T04:15:50.769Z,2.21
2018-11-27T04:18:22.801Z,2.19
2018-11-27T04:20:54.866Z,2.19
2018-11-27T04:23:26.950Z,2.16
2018-11-27T04:25:58.993Z,2.21
2018-11-27T04:28:30.990Z,2.21
2018-11-27T04:51:45.549Z,2.26
2018-11-27T04:54:17.631Z,2.20
2018-11-27T04:56:49.644Z,2.28
2018-11-27T04:59:21.599Z,2.28
2018-11-27T05:01:53.685Z,2.28
2018-11-27T05:04:26.245Z,2.25
2018-11-27T05:06:58.261Z,2.27
2018-11-27T05:09:30.256Z,2.30
2018-11-27T05:12:02.305Z,2.31
2018-11-27T05:14:34.382Z,2.31
2018-11-27T05:17:06.525Z,2.20
2018-11-27T05:19:38.530Z,2.21
2018-11-27T05:22:10.525Z,2.20
2018-11-27T05:24:42.532Z,2.18
2018-11-27T05:27:14.617Z,2.19
2018-11-27T05:29:46.650Z,2.17
2018-11-27T05:32:18.730Z,2.18
2018-11-27T05:34:50.706Z,2.19
2018-11-27T05:37:23.017Z,2.18
2018-11-27T05:39:55.013Z,2.19
2018-11-27T05:42:27.076Z,2.21
2018-11-27T05:44:59.048Z,2.18
2018-11-27T05:47:31.141Z,2.23
2018-11-27T05:50:04.264Z,2.20
2018-11-27T05:52:36.251Z,2.21
2018-11-27T05:55:09.316Z,2.23
2018-11-27T05:57:41.985Z,2.30
2018-11-27T06:00:17.102Z,2.26
2018-11-27T06:02:50.641Z,2.23
2018-11-27T06:05:23.599Z,2.24
2018-11-27T06:07:55.603Z,2.30
2018-11-27T06:10:27.609Z,2.29
2018-11-27T06:12:59.684Z,2.32
2018-11-27T06:15:32.682Z,2.29
2018-11-27T06:35:57.329Z,2.32
2018-11-27T06:38:29.347Z,2.31
2018-11-27T06:41:01.358Z,2.28
2018-11-27T06:46:12.154Z,2.37
2018-11-27T06:48:44.189Z,2.41
2018-11-27T06:51:16.212Z,2.40
2018-11-27T06:53:48.240Z,2.32
2018-11-27T06:56:20.343Z,2.37
2018-11-27T07:16:36.908Z,2.40
2018-11-27T07:19:08.900Z,2.40
2018-11-27T07:21:40.905Z,2.42
2018-11-27T07:24:12.927Z,2.48
2018-11-27T07:26:44.904Z,2.50
2018-11-27T07:29:17.177Z,2.57
2018-11-27T07:31:49.956Z,2.55
2018-11-27T07:34:21.987Z,2.60
2018-11-27T07:36:53.995Z,2.55
2018-11-27T07:39:26.077Z,2.54
2018-11-27T07:41:58.155Z,2.56
2018-11-27T07:44:30.173Z,2.63
2018-11-27T07:47:02.176Z,2.59
2018-11-27T07:49:34.289Z,2.59
2018-11-27T08:09:52.171Z,2.85
2018-11-27T08:12:24.205Z,2.86
2018-11-27T08:32:41.431Z,3.09
2018-11-27T08:35:17.477Z,3.05
2018-11-27T08:37:51.425Z,3.07
2018-11-27T08:40:24.473Z,3.18
2018-11-27T08:42:56.508Z,3.15
2018-11-27T08:45:28.602Z,3.10
2018-11-27T08:48:00.634Z,3.14
2018-11-27T08:50:32.753Z,3.11
2018-11-27T08:53:06.126Z,2.97
2018-11-27T09:25:33.709Z,3.38
2018-11-27T09:28:05.705Z,3.38
2018-11-27T09:30:37.741Z,3.30
2018-11-27T09:33:09.795Z,3.24
2018-11-27T09:35:41.796Z,3.31
2018-11-27T09:55:58.470Z,3.88
2018-11-27T10:16:16.356Z,3.76
2018-11-27T10:36:34.497Z,3.59
2018-11-27T10:39:07.561Z,3.56
2018-11-27T10:41:39.593Z,3.67
2018-11-27T10:44:11.641Z,3.74
2018-11-27T10:46:43.744Z,3.71
2018-11-27T10:49:15.791Z,3.52
2018-11-27T11:03:44.951Z,4.21
2018-11-27T11:06:36.317Z,4.14
2018-11-27T11:21:04.086Z,4.39
2018-11-27T11:23:36.161Z,4.59
2018-11-27T11:35:11.622Z,4.69
2018-11-27T11:55:28.363Z,4.58
2018-11-27T11:58:00.445Z,4.26
2018-11-27T12:00:37.784Z,4.52
2018-11-27T12:03:09.839Z,4.52
2018-11-27T12:05:41.836Z,4.83
2018-11-27T12:25:59.124Z,5.50
2018-11-27T12:55:12.619Z,5.39
2018-11-27T13:15:29.499Z,5.01
2018-11-27T13:18:01.635Z,4.85
2018-11-27T13:20:33.821Z,4.58
2018-11-27T13:23:06.377Z,4.58
2018-11-27T13:25:39.045Z,4.62
2018-11-27T13:28:12.318Z,4.61
2018-11-27T13:30:50.201Z,4.55
2018-11-27T13:33:24.029Z,4.60
2018-11-27T13:35:56.264Z,4.55
2018-11-27T13:56:13.591Z,4.24
2018-11-27T13:58:45.662Z,4.33
2018-11-27T14:01:18.446Z,4.33
2018-11-27T14:03:50.546Z,4.07
2018-11-27T14:06:24.312Z,4.06
2018-11-27T14:08:56.441Z,3.96
2018-11-27T14:11:28.490Z,4.14
2018-11-27T14:31:46.201Z,3.81
2018-11-27T14:34:18.313Z,3.76
2018-11-27T14:36:50.455Z,3.68
2018-11-27T14:57:07.958Z,3.27
2018-11-27T15:17:24.908Z,3.18
2018-11-27T15:19:56.977Z,3.27
2018-11-27T15:22:29.069Z,3.20
2018-11-27T15:25:01.154Z,3.17
2018-11-27T15:27:33.286Z,3.18
2018-11-27T15:30:13.764Z,3.18
2018-11-27T15:50:31.422Z,3.24
2018-11-27T15:53:03.905Z,3.30
2018-11-27T15:55:37.667Z,3.32
2018-11-27T15:58:11.861Z,3.37
2018-11-27T16:00:43.921Z,3.30
2018-11-27T16:03:15.891Z,3.32
2018-11-27T16:05:47.973Z,3.38
2018-11-27T16:08:19.958Z,3.32
2018-11-27T16:10:52.001Z,3.29
2018-11-27T16:13:24.029Z,3.36
2018-11-27T16:15:56.024Z,3.27
2018-11-27T16:18:28.065Z,3.30
2018-11-27T16:38:45.210Z,3.27
2018-11-27T16:59:03.573Z,3.20
2018-11-27T17:19:20.456Z,3.17
2018-11-27T17:21:52.532Z,3.18
2018-11-27T17:42:10.482Z,2.94
2018-11-27T18:02:28.829Z,2.68
2018-11-27T18:22:45.199Z,2.37
2018-11-27T18:25:18.141Z,2.26
2018-11-27T18:27:50.275Z,2.24
2018-11-27T18:30:22.873Z,2.20
2018-11-27T18:41:47.615Z,1.92
2018-11-27T18:44:19.699Z,2.04
2018-11-27T18:46:52.034Z,2.05
2018-11-27T18:49:24.207Z,2.01
2018-11-27T18:51:56.294Z,1.97
2018-11-27T18:54:28.358Z,1.89
2018-11-27T18:57:00.435Z,1.73
2018-11-27T18:59:32.548Z,1.68
2018-11-27T19:02:05.375Z,1.64
2018-11-27T19:04:37.463Z,1.76
2018-11-27T19:07:11.519Z,1.72
2018-11-27T19:09:43.683Z,1.58
2018-11-27T19:12:15.810Z,1.45
2018-11-27T19:14:47.988Z,1.40
2018-11-27T19:17:20.093Z,1.34
2018-11-27T19:19:52.174Z,1.24
2018-11-27T19:22:25.318Z,1.10
2018-11-27T19:24:58.408Z,1.01
2018-11-27T19:27:30.593Z,0.92
2018-11-27T19:30:03.458Z,0.95
2018-11-27T19:32:35.632Z,0.86
2018-11-27T19:35:09.325Z,0.81
2018-11-27T19:37:41.446Z,0.86
2018-11-27T19:40:14.788Z,0.76
2018-11-27T19:42:46.905Z,0.68
2018-11-27T19:45:22.197Z,0.53
2018-11-27T19:47:54.921Z,0.37
2018-11-27T19:50:27.014Z,0.13
2018-11-27T19:52:59.535Z,-0.02
2018-11-27T19:55:39.229Z,-0.18
2018-11-27T19:58:11.355Z,-0.36
2018-11-27T20:00:43.487Z,-0.39
2018-11-27T20:03:15.683Z,-0.48
2018-11-27T20:05:48.787Z,-0.49
2018-11-27T20:08:21.034Z,-0.36
2018-11-27T20:10:53.114Z,-0.11
2018-11-27T20:13:25.213Z,0.00
2018-11-27T20:15:57.990Z,-0.03
2018-11-27T20:18:30.131Z,0.08
2018-11-27T20:21:02.403Z,0.05
2018-11-27T20:23:34.482Z,0.02
2018-11-27T20:26:06.518Z,0.07
2018-11-27T20:28:38.593Z,0.07
2018-11-27T20:31:10.710Z,-0.04
2018-11-27T20:33:42.830Z,-0.05
2018-11-27T20:36:14.915Z,-0.17
2018-11-27T20:38:46.959Z,-0.19
2018-11-27T20:41:19.035Z,-0.29
2018-11-27T20:43:51.128Z,-0.46
2018-11-27T20:46:23.246Z,-0.59
2018-11-27T20:48:55.287Z,-0.71
2018-11-27T20:51:27.438Z,-0.77
2018-11-27T20:53:59.636Z,-0.84
2018-11-27T20:56:31.771Z,-0.84
2018-11-27T20:59:04.060Z,-0.94
2018-11-27T21:01:36.303Z,-0.98
2018-11-27T21:04:08.466Z,-1.11
2018-11-27T21:06:40.664Z,-1.10
2018-11-27T21:09:12.923Z,-1.02
2018-11-27T21:11:45.001Z,-1.08
2018-11-27T21:14:17.069Z,-1.03
2018-11-27T21:16:49.153Z,-0.98
2018-11-27T21:19:21.292Z,-0.92
2018-11-27T21:21:53.365Z,-0.94
2018-11-27T21:24:25.548Z,-0.98
2018-11-27T21:26:57.738Z,-0.99
2018-11-27T21:29:29.897Z,-0.83
2018-11-27T21:32:01.970Z,-0.91
2018-11-27T21:34:34.129Z,-0.98
2018-11-27T21:37:06.319Z,-0.92
2018-11-27T21:39:38.391Z,-0.72
2018-11-27T21:42:10.565Z,-0.86
2018-11-27T21:44:42.679Z,-1.01
2018-11-27T21:47:14.774Z,-1.06
2018-11-27T21:49:46.874Z,-1.11
2018-11-27T21:52:19.006Z,-1.10
2018-11-27T21:54:51.078Z,-1.08
2018-11-27T21:57:23.172Z,-1.11
2018-11-27T21:59:55.285Z,-1.16
2018-11-27T22:02:27.453Z,-1.19
2018-11-27T22:04:59.611Z,-1.14
2018-11-27T22:07:31.646Z,-1.08
2018-11-27T22:10:07.281Z,-1.04
2018-11-27T22:12:40.315Z,-1.08
2018-11-27T22:15:30.822Z,-1.14
2018-11-27T22:18:03.926Z,-1.06
2018-11-27T22:20:36.189Z,-1.11
2018-11-27T22:23:08.766Z,-1.03
2018-11-27T22:25:40.897Z,-1.03
2018-11-27T22:28:19.739Z,-1.09
2018-11-27T22:30:51.766Z,-1.22
2018-11-27T22:33:23.834Z,-1.26
2018-11-27T22:35:55.905Z,-1.40
2018-11-27T22:38:27.991Z,-1.61
2018-11-27T22:41:00.058Z,-1.79
2018-11-27T22:43:32.103Z,-1.71
2018-11-27T22:46:04.447Z,-1.57
2018-11-27T22:48:36.551Z,-1.47
2018-11-27T22:51:08.616Z,-1.56
2018-11-27T22:53:40.665Z,-1.54
2018-11-27T22:56:12.818Z,-1.46
2018-11-27T22:58:44.881Z,-1.41
2018-11-27T23:01:16.998Z,-1.38
2018-11-27T23:03:49.057Z,-1.47
2018-11-27T23:06:21.109Z,-1.69
2018-11-27T23:08:53.230Z,-1.82
2018-11-27T23:11:25.262Z,-1.84
2018-11-27T23:13:57.292Z,-1.83
2018-11-27T23:16:29.359Z,-1.84
2018-11-27T23:19:01.425Z,-1.81
2018-11-27T23:21:33.486Z,-1.82
2018-11-27T23:24:05.586Z,-1.77
2018-11-27T23:26:37.747Z,-1.90
2018-11-27T23:29:09.826Z,-1.74
2018-11-27T23:31:41.890Z,-1.80
2018-11-27T23:34:13.930Z,-1.89
2018-11-27T23:36:45.957Z,-1.97
2018-11-27T23:39:17.973Z,-2.02
2018-11-27T23:41:50.126Z,-2.04
2018-11-27T23:44:22.144Z,-2.11
2018-11-27T23:46:54.200Z,-2.28
2018-11-27T23:49:26.275Z,-2.23
2018-11-27T23:51:58.313Z,-2.14
2018-11-27T23:54:30.395Z,-2.14
2018-11-27T23:57:02.563Z,-2.12
2018-11-27T23:59:34.758Z,-2.10
